This is the latest recevied weather packets stored in our database for station/object W4DEX-2. If no packets are shown the sender has not sent any weather packets the latest 10 day(s).
| Time | Temp. | Humidity | Pressure | Rain* | Wind** | Luminosity | Snow |
|---|---|---|---|---|---|---|---|
| 1777521602 | 17.78° C | 89% | 1009 hPa | 0 mm | 3.58 m/s, 176° | - | - |
| 1777521302 | 17.78° C | 89% | 1009 hPa | 0 mm | 4.47 m/s, 180° | - | - |
| 1777520702 | 17.78° C | 89% | 1008.8 hPa | 0 mm | 4.02 m/s, 180° | - | - |
| 1777520402 | 17.78° C | 89% | 1008.8 hPa | 0 mm | 3.58 m/s, 183° | - | - |
| 1777520102 | 17.78° C | 89% | 1008.6 hPa | 0 mm | 3.58 m/s, 177° | - | - |
| 1777519802 | 17.78° C | 89% | 1008.9 hPa | 0 mm | 4.92 m/s, 180° | - | - |
| 1777519202 | 17.78° C | 89% | 1008.7 hPa | 0 mm | 4.92 m/s, 180° | - | - |
| 1777518902 | 17.78° C | 89% | 1008.7 hPa | 0 mm | 4.47 m/s, 180° | - | - |
| 1777518602 | 18.33° C | 88% | 1008.7 hPa | 0 mm | 5.36 m/s, 183° | - | - |
| 1777518003 | 18.33° C | 88% | 1008.8 hPa | 0 mm | 4.92 m/s, 175° | - | - |
| 1777517702 | 18.89° C | 89% | 1008.8 hPa | 0 mm | 5.36 m/s, 178° | - | - |
| 1777517402 | 18.89° C | 88% | 1009 hPa | 0 mm | 4.92 m/s, 176° | - | - |
| 1777517104 | 18.89° C | 88% | 1008.8 hPa | 0 mm | 4.47 m/s, 180° | - | - |
| 1777516502 | 18.89° C | 88% | 1008.8 hPa | 0 mm | 4.47 m/s, 181° | - | - |
| 1777516202 | 18.89° C | 88% | 1009 hPa | 0 mm | 4.47 m/s, 188° | - | - |
| 1777515902 | 18.89° C | 87% | 1008.9 hPa | 0 mm | 4.92 m/s, 178° | - | - |
| 1777515604 | 18.89° C | 87% | 1008.7 hPa | 0 mm | 4.02 m/s, 176° | - | - |
| 1777515303 | 18.89° C | 87% | 1008.8 hPa | 4.06 mm | 4.47 m/s, 179° | - | - |
| 1777515004 | 19.44° C | 85% | 1009.1 hPa | 22.61 mm | 4.02 m/s, 178° | - | - |
| 1777514702 | 19.44° C | 83% | 1009.2 hPa | 24.38 mm | 2.24 m/s, 182° | - | - |
| 1777514402 | 20.56° C | 78% | 1008.7 hPa | 5.33 mm | 2.68 m/s, 197° | - | - |
| 1777513202 | 22.22° C | 66% | 1007.6 hPa | 0 mm | 5.36 m/s, 177° | - | - |
| 1777512902 | 22.22° C | 67% | 1007.8 hPa | 0 mm | 4.92 m/s, 179° | - | - |
| 1777511703 | 22.22° C | 66% | 1007.6 hPa | 0 mm | 4.92 m/s, 179° | - | - |
| 1777511402 | 22.22° C | 66% | 1007.6 hPa | 0 mm | 4.02 m/s, 180° | - | - |
* Rain latest hour (hover to see other rain measurements)
** Current wind speed in m/s (hover to see current wind gust speed)